Time,TemperatureF,DewpointF,PressureIn,WindDirection,WindDirectionDegrees,WindSpeedMPH,WindSpeedGustMPH,Humidity,HourlyPrecipIn,Conditions,Clouds,dailyrainin,SolarRadiationWatts/m^2,SoftwareType,DateUTC
2013-09-20 00:11:00,44.0,25.0,-100.00,WNW,290,1.0,4.0,47,0.00,,,0.00,0.000000,,2013-09-20 07:11:00,
2013-09-20 00:22:00,44.0,25.0,-100.00,WNW,290,1.0,4.0,47,0.00,,,0.00,0.000000,,2013-09-20 07:22:00,
2013-09-20 00:32:00,44.0,25.0,-100.00,WNW,290,1.0,4.0,47,0.00,,,0.00,0.000000,,2013-09-20 07:32:00,
2013-09-20 01:11:00,42.0,24.0,-100.00,WNW,288,2.0,4.0,48,0.00,,,0.00,0.000000,,2013-09-20 08:11:00,
2013-09-20 01:21:00,42.0,24.0,-100.00,WNW,288,2.0,4.0,48,0.00,,,0.00,0.000000,,2013-09-20 08:21:00,
2013-09-20 01:32:00,42.0,24.0,-100.00,WNW,288,2.0,4.0,48,0.00,,,0.00,0.000000,,2013-09-20 08:32:00,
2013-09-20 02:12:00,41.0,23.0,-100.00,WNW,290,0.0,4.0,49,0.00,,,0.00,0.000000,,2013-09-20 09:12:00,
2013-09-20 02:22:00,41.0,23.0,-100.00,WNW,290,0.0,4.0,49,0.00,,,0.00,0.000000,,2013-09-20 09:22:00,
2013-09-20 02:33:00,41.0,23.0,-100.00,WNW,290,0.0,4.0,49,0.00,,,0.00,0.000000,,2013-09-20 09:33:00,
2013-09-20 03:12:00,42.0,25.0,-100.00,WNW,288,0.0,4.0,50,0.00,,,0.00,0.000000,,2013-09-20 10:12:00,
2013-09-20 03:23:00,42.0,25.0,-100.00,WNW,288,0.0,4.0,50,0.00,,,0.00,0.000000,,2013-09-20 10:23:00,
2013-09-20 03:32:00,42.0,25.0,-100.00,WNW,288,0.0,4.0,50,0.00,,,0.00,0.000000,,2013-09-20 10:32:00,
2013-09-20 04:12:00,41.0,24.0,-100.00,WNW,290,0.0,4.0,51,0.00,,,0.00,0.000000,,2013-09-20 11:12:00,
2013-09-20 04:23:00,41.0,24.0,-100.00,WNW,290,0.0,4.0,51,0.00,,,0.00,0.000000,,2013-09-20 11:23:00,
2013-09-20 04:33:00,41.0,24.0,-100.00,WNW,290,0.0,4.0,51,0.00,,,0.00,0.000000,,2013-09-20 11:33:00,
2013-09-20 05:12:00,40.0,24.0,-100.00,WNW,290,0.0,5.0,53,0.00,,,0.00,0.000000,,2013-09-20 12:12:00,
2013-09-20 05:22:00,40.0,24.0,-100.00,WNW,290,0.0,5.0,53,0.00,,,0.00,0.000000,,2013-09-20 12:22:00,
2013-09-20 05:32:00,40.0,24.0,-100.00,WNW,290,0.0,5.0,53,0.00,,,0.00,0.000000,,2013-09-20 12:32:00,
2013-09-20 06:12:00,40.0,24.0,-100.00,WNW,290,0.0,4.0,52,0.00,,,0.00,0.000000,,2013-09-20 13:12:00,
2013-09-20 06:21:00,40.0,24.0,-100.00,WNW,290,0.0,4.0,52,0.00,,,0.00,0.000000,,2013-09-20 13:21:00,
2013-09-20 06:32:00,40.0,24.0,-100.00,WNW,290,0.0,4.0,52,0.00,,,0.00,0.000000,,2013-09-20 13:32:00,
2013-09-20 07:11:00,39.0,23.0,-100.00,WNW,289,1.0,3.0,53,0.00,,,0.00,0.000000,,2013-09-20 14:11:00,
2013-09-20 07:21:00,39.0,23.0,-100.00,WNW,289,1.0,3.0,53,0.00,,,0.00,0.000000,,2013-09-20 14:21:00,
2013-09-20 07:32:00,39.0,23.0,-100.00,WNW,289,1.0,3.0,53,0.00,,,0.00,0.000000,,2013-09-20 14:32:00,
2013-09-20 08:12:00,39.0,24.0,-100.00,NNW,342,0.0,4.0,54,0.00,,,0.00,12.000000,,2013-09-20 15:12:00,
2013-09-20 09:13:00,50.0,35.0,-100.00,East,94,0.0,3.0,56,-99.99,,,0.00,38.000000,,2013-09-20 16:13:00,
2013-09-20 09:34:00,68.0,35.0,-100.00,East,93,0.0,4.0,29,-99.99,,,0.00,440.000000,,2013-09-20 16:34:00,
2013-09-20 10:13:00,68.0,35.0,-100.00,East,93,0.0,4.0,29,-99.99,,,0.00,440.000000,,2013-09-20 17:13:00,
2013-09-20 10:23:00,68.0,35.0,-100.00,East,93,0.0,4.0,29,-99.99,,,0.00,440.000000,,2013-09-20 17:23:00,
2013-09-20 11:12:00,76.0,28.0,-100.00,ESE,111,2.0,7.0,17,0.00,,,0.00,818.000000,,2013-09-20 18:12:00,
2013-09-20 11:22:00,76.0,28.0,-100.00,ESE,111,2.0,7.0,17,0.00,,,0.00,818.000000,,2013-09-20 18:22:00,
2013-09-20 11:32:00,76.0,28.0,-100.00,ESE,111,2.0,7.0,17,0.00,,,0.00,818.000000,,2013-09-20 18:32:00,
2013-09-20 12:11:00,76.0,32.0,-100.00,ENE,67,3.0,11.0,20,0.00,,,0.00,980.000000,,2013-09-20 19:11:00,
2013-09-20 12:22:00,76.0,32.0,-100.00,ENE,67,3.0,11.0,20,0.00,,,0.00,980.000000,,2013-09-20 19:22:00,
2013-09-20 12:32:00,76.0,32.0,-100.00,ENE,67,3.0,11.0,20,0.00,,,0.00,980.000000,,2013-09-20 19:32:00,
2013-09-20 13:12:00,76.0,33.0,-100.00,NW,323,5.0,14.0,21,0.00,,,0.00,1070.000000,,2013-09-20 20:12:00,
2013-09-20 13:22:00,76.0,33.0,-100.00,NW,323,5.0,14.0,21,0.00,,,0.00,1070.000000,,2013-09-20 20:22:00,
2013-09-20 13:32:00,76.0,33.0,-100.00,NW,323,5.0,14.0,21,0.00,,,0.00,1070.000000,,2013-09-20 20:32:00,
2013-09-20 13:34:00,75.0,27.0,-100.00,ENE,68,6.0,14.0,17,0.00,,,0.00,1084.000000,,2013-09-20 20:34:00,
2013-09-20 14:12:00,75.0,27.0,-100.00,ENE,68,6.0,14.0,17,0.00,,,0.00,1084.000000,,2013-09-20 21:12:00,
2013-09-20 14:21:00,75.0,27.0,-100.00,ENE,68,6.0,14.0,17,0.00,,,0.00,1084.000000,,2013-09-20 21:21:00,
2013-09-20 15:14:00,77.0,34.0,-100.00,ESE,115,5.0,15.0,21,0.00,,,0.00,1021.000000,,2013-09-20 22:14:00,
2013-09-20 15:23:00,77.0,34.0,-100.00,ESE,115,5.0,15.0,21,0.00,,,0.00,1021.000000,,2013-09-20 22:23:00,
2013-09-20 15:33:00,77.0,34.0,-100.00,ESE,115,5.0,15.0,21,0.00,,,0.00,1021.000000,,2013-09-20 22:33:00,
2013-09-20 15:34:00,74.0,34.0,-100.00,ESE,104,5.0,11.0,23,0.00,,,0.00,877.000000,,2013-09-20 22:34:00,
2013-09-20 16:12:00,74.0,34.0,-100.00,ESE,104,5.0,11.0,23,0.00,,,0.00,877.000000,,2013-09-20 23:12:00,
2013-09-20 16:22:00,74.0,34.0,-100.00,ESE,104,5.0,11.0,23,0.00,,,0.00,877.000000,,2013-09-20 23:22:00,
2013-09-20 17:11:00,70.0,34.0,-100.00,ESE,121,6.0,11.0,26,0.00,,,0.00,622.000000,,2013-09-21 00:11:00,
2013-09-20 17:21:00,70.0,34.0,-100.00,ESE,121,6.0,11.0,26,0.00,,,0.00,622.000000,,2013-09-21 00:21:00,
2013-09-20 17:32:00,70.0,34.0,-100.00,ESE,121,6.0,11.0,26,0.00,,,0.00,622.000000,,2013-09-21 00:32:00,
2013-09-20 18:12:00,64.0,35.0,-100.00,ESE,118,5.0,11.0,34,0.00,,,-99.99,49.000000,,2013-09-21 01:12:00,
2013-09-20 18:22:00,64.0,35.0,-100.00,ESE,118,5.0,11.0,34,0.00,,,-99.99,49.000000,,2013-09-21 01:22:00,
2013-09-20 18:32:00,64.0,35.0,-100.00,ESE,118,5.0,11.0,34,0.00,,,-99.99,49.000000,,2013-09-21 01:32:00,
2013-09-20 19:22:00,60.0,35.0,-100.00,SW,233,0.0,12.0,39,0.00,,,0.00,24.000000,,2013-09-21 02:22:00,
2013-09-20 19:32:00,60.0,35.0,-100.00,SW,233,0.0,12.0,39,0.00,,,0.00,24.000000,,2013-09-21 02:32:00,
2013-09-20 19:34:00,54.0,33.0,-100.00,ENE,57,0.0,5.0,45,0.00,,,-99.99,2.000000,,2013-09-21 02:34:00,
2013-09-20 20:12:00,54.0,33.0,-100.00,ENE,57,0.0,5.0,45,0.00,,,-99.99,2.000000,,2013-09-21 03:12:00,
2013-09-20 20:22:00,54.0,33.0,-100.00,ENE,57,0.0,5.0,45,0.00,,,-99.99,2.000000,,2013-09-21 03:22:00,
2013-09-20 23:12:00,46.0,26.0,-100.00,WNW,287,2.0,5.0,45,0.00,,,0.00,0.000000,,2013-09-21 06:12:00,
2013-09-20 23:22:00,46.0,26.0,-100.00,WNW,287,2.0,5.0,45,0.00,,,0.00,0.000000,,2013-09-21 06:22:00,
2013-09-20 23:32:00,46.0,26.0,-100.00,WNW,287,2.0,5.0,45,0.00,,,0.00,0.000000,,2013-09-21 06:32:00,